Main page
METAR-TAF:

METAR-TAF

Airports :

Kavala International Airport

Kavala, Greece

latitude: 40-59N, longitude: 024-36E, elevation: 5 m

Current weather observation

The report was made 17 minutes ago, at 16:50 UTC
Calm wind
Temperature 18°C
Humidity 83%
Pressure 1016 hPa
Visibility 10 km or more
Few clouds at a height of 3500 ft

METAR: LGKV 181650Z 00000KT 9999 FEW035 18/15 Q1016

Time: 20:07 (17:07 UTC)

Forecast

The report was made 3 hours and 7 minutes ago, at 14:00 UTC
Forecast valid from 18 at 15 UTC to 18 at 24 UTC
Wind 5 kt from variable directions
Visibility 10 km or more
Few clouds at a height of 3000 ft

TAF: LGKV 181400Z 1815/1824 VRB05KT 9999 FEW030

Weather observations and forecasts of more than 4000 airports (METAR and TAF reports).

The available stations are represented by yellow and red dots on the map.

Hover mouse over dot to see the name of the station.

Then click to see weather observations and forecasts.

To change the map : click on the green buttons with a black cross to zoom in, on the green button with a dash to zoom out, or on the green arrows for adjacent maps.


METAR-TAF: